sensor_id;sensor_type;location;lat;lon;timestamp;P1;durP1;ratioP1;P2;durP2;ratioP2
21281;SDS011;10800;53.096;18.328;2022-08-03T00:03:36;11.43;;;4.53;;
21281;SDS011;10800;53.096;18.328;2022-08-03T00:08:41;13.67;;;5.07;;
21281;SDS011;10800;53.096;18.328;2022-08-03T00:13:47;12.43;;;5.13;;
21281;SDS011;10800;53.096;18.328;2022-08-03T00:18:52;15.27;;;5.43;;
21281;SDS011;10800;53.096;18.328;2022-08-03T00:23:58;23.83;;;5.37;;
21281;SDS011;10800;53.096;18.328;2022-08-03T00:29:04;14.23;;;5.10;;
21281;SDS011;10800;53.096;18.328;2022-08-03T00:34:09;15.63;;;5.00;;
21281;SDS011;10800;53.096;18.328;2022-08-03T00:39:15;12.87;;;4.83;;
21281;SDS011;10800;53.096;18.328;2022-08-03T00:44:21;14.10;;;5.13;;
21281;SDS011;10800;53.096;18.328;2022-08-03T00:49:26;8.77;;;4.27;;
21281;SDS011;10800;53.096;18.328;2022-08-03T00:54:32;11.93;;;5.03;;
21281;SDS011;10800;53.096;18.328;2022-08-03T00:59:39;13.13;;;4.90;;
21281;SDS011;10800;53.096;18.328;2022-08-03T01:04:45;17.73;;;4.90;;
21281;SDS011;10800;53.096;18.328;2022-08-03T01:09:59;8.50;;;5.40;;
21281;SDS011;10800;53.096;18.328;2022-08-03T01:20:32;12.73;;;5.70;;
21281;SDS011;10800;53.096;18.328;2022-08-03T01:31:14;15.30;;;5.03;;
21281;SDS011;10800;53.096;18.328;2022-08-03T01:36:23;8.70;;;4.90;;
21281;SDS011;10800;53.096;18.328;2022-08-03T01:41:32;10.53;;;4.67;;
21281;SDS011;10800;53.096;18.328;2022-08-03T01:46:38;15.97;;;6.30;;
21281;SDS011;10800;53.096;18.328;2022-08-03T01:51:47;12.17;;;5.33;;
21281;SDS011;10800;53.096;18.328;2022-08-03T01:56:55;12.73;;;4.90;;
21281;SDS011;10800;53.096;18.328;2022-08-03T02:02:03;12.53;;;4.73;;
21281;SDS011;10800;53.096;18.328;2022-08-03T02:07:12;8.63;;;4.87;;
21281;SDS011;10800;53.096;18.328;2022-08-03T02:12:20;11.87;;;4.97;;
21281;SDS011;10800;53.096;18.328;2022-08-03T02:17:27;14.17;;;5.70;;
21281;SDS011;10800;53.096;18.328;2022-08-03T02:22:38;14.50;;;5.97;;
21281;SDS011;10800;53.096;18.328;2022-08-03T02:27:47;13.40;;;6.07;;
21281;SDS011;10800;53.096;18.328;2022-08-03T02:32:56;11.47;;;6.47;;
21281;SDS011;10800;53.096;18.328;2022-08-03T02:38:04;17.63;;;7.17;;
21281;SDS011;10800;53.096;18.328;2022-08-03T02:43:18;13.70;;;6.97;;
21281;SDS011;10800;53.096;18.328;2022-08-03T02:48:26;17.57;;;5.97;;
21281;SDS011;10800;53.096;18.328;2022-08-03T02:53:28;17.27;;;6.10;;
21281;SDS011;10800;53.096;18.328;2022-08-03T02:58:36;13.13;;;6.20;;
21281;SDS011;10800;53.096;18.328;2022-08-03T03:03:45;15.57;;;6.57;;
21281;SDS011;10800;53.096;18.328;2022-08-03T03:08:53;16.67;;;6.93;;
21281;SDS011;10800;53.096;18.328;2022-08-03T03:14:02;15.23;;;5.90;;
21281;SDS011;10800;53.096;18.328;2022-08-03T03:19:10;17.20;;;6.50;;
21281;SDS011;10800;53.096;18.328;2022-08-03T03:24:17;13.90;;;6.20;;
21281;SDS011;10800;53.096;18.328;2022-08-03T03:29:24;9.70;;;5.80;;
21281;SDS011;10800;53.096;18.328;2022-08-03T03:34:30;15.83;;;6.53;;
21281;SDS011;10800;53.096;18.328;2022-08-03T03:39:36;13.20;;;6.03;;
21281;SDS011;10800;53.096;18.328;2022-08-03T03:44:42;17.60;;;6.23;;
21281;SDS011;10800;53.096;18.328;2022-08-03T03:49:48;14.90;;;6.90;;
21281;SDS011;10800;53.096;18.328;2022-08-03T03:54:54;12.17;;;6.50;;
21281;SDS011;10800;53.096;18.328;2022-08-03T04:00:02;15.43;;;5.57;;
21281;SDS011;10800;53.096;18.328;2022-08-03T04:05:09;20.20;;;5.97;;
21281;SDS011;10800;53.096;18.328;2022-08-03T04:10:32;11.77;;;7.00;;
21281;SDS011;10800;53.096;18.328;2022-08-03T04:15:58;17.23;;;7.10;;
21281;SDS011;10800;53.096;18.328;2022-08-03T04:21:07;14.53;;;6.20;;
21281;SDS011;10800;53.096;18.328;2022-08-03T04:26:19;12.73;;;5.50;;
21281;SDS011;10800;53.096;18.328;2022-08-03T04:31:27;11.83;;;5.10;;
21281;SDS011;10800;53.096;18.328;2022-08-03T04:36:36;13.57;;;5.37;;
21281;SDS011;10800;53.096;18.328;2022-08-03T04:41:42;11.27;;;5.23;;
21281;SDS011;10800;53.096;18.328;2022-08-03T04:46:52;9.93;;;4.93;;
21281;SDS011;10800;53.096;18.328;2022-08-03T04:51:58;12.97;;;5.53;;
21281;SDS011;10800;53.096;18.328;2022-08-03T04:57:03;10.27;;;5.87;;
21281;SDS011;10800;53.096;18.328;2022-08-03T05:02:09;7.63;;;4.97;;
21281;SDS011;10800;53.096;18.328;2022-08-03T05:07:15;14.50;;;4.93;;
21281;SDS011;10800;53.096;18.328;2022-08-03T05:12:23;16.83;;;5.57;;
21281;SDS011;10800;53.096;18.328;2022-08-03T05:17:30;15.93;;;5.37;;
21281;SDS011;10800;53.096;18.328;2022-08-03T05:22:40;11.73;;;5.60;;
21281;SDS011;10800;53.096;18.328;2022-08-03T05:27:45;9.30;;;5.00;;
21281;SDS011;10800;53.096;18.328;2022-08-03T05:32:51;10.63;;;5.40;;
21281;SDS011;10800;53.096;18.328;2022-08-03T05:37:56;9.93;;;5.27;;
21281;SDS011;10800;53.096;18.328;2022-08-03T05:43:06;12.47;;;5.50;;
21281;SDS011;10800;53.096;18.328;2022-08-03T05:48:11;15.90;;;5.77;;
21281;SDS011;10800;53.096;18.328;2022-08-03T05:53:17;11.17;;;6.03;;
21281;SDS011;10800;53.096;18.328;2022-08-03T05:58:22;11.23;;;6.13;;
21281;SDS011;10800;53.096;18.328;2022-08-03T06:03:29;12.83;;;7.07;;
21281;SDS011;10800;53.096;18.328;2022-08-03T06:08:35;13.53;;;6.90;;
21281;SDS011;10800;53.096;18.328;2022-08-03T06:13:40;12.47;;;6.73;;
21281;SDS011;10800;53.096;18.328;2022-08-03T06:18:46;11.07;;;5.90;;
21281;SDS011;10800;53.096;18.328;2022-08-03T06:23:52;33.10;;;18.42;;
21281;SDS011;10800;53.096;18.328;2022-08-03T06:28:58;39.87;;;22.20;;
21281;SDS011;10800;53.096;18.328;2022-08-03T06:34:05;10.20;;;6.20;;
21281;SDS011;10800;53.096;18.328;2022-08-03T06:39:12;10.55;;;6.03;;
21281;SDS011;10800;53.096;18.328;2022-08-03T06:44:17;12.88;;;7.00;;
21281;SDS011;10800;53.096;18.328;2022-08-03T06:49:23;14.33;;;6.60;;
21281;SDS011;10800;53.096;18.328;2022-08-03T06:54:29;12.83;;;6.10;;
21281;SDS011;10800;53.096;18.328;2022-08-03T06:59:35;11.63;;;6.33;;
21281;SDS011;10800;53.096;18.328;2022-08-03T07:04:42;16.47;;;8.83;;
21281;SDS011;10800;53.096;18.328;2022-08-03T07:09:48;13.70;;;6.28;;
21281;SDS011;10800;53.096;18.328;2022-08-03T07:14:55;14.95;;;6.80;;
21281;SDS011;10800;53.096;18.328;2022-08-03T07:20:06;10.70;;;5.58;;
21281;SDS011;10800;53.096;18.328;2022-08-03T07:25:12;13.72;;;5.95;;
21281;SDS011;10800;53.096;18.328;2022-08-03T07:30:18;17.73;;;9.15;;
21281;SDS011;10800;53.096;18.328;2022-08-03T07:40:50;7.05;;;4.92;;
21281;SDS011;10800;53.096;18.328;2022-08-03T07:45:59;7.53;;;4.90;;
21281;SDS011;10800;53.096;18.328;2022-08-03T07:51:04;5.58;;;3.75;;
21281;SDS011;10800;53.096;18.328;2022-08-03T07:56:10;13.95;;;5.03;;
21281;SDS011;10800;53.096;18.328;2022-08-03T08:01:15;6.10;;;3.33;;
21281;SDS011;10800;53.096;18.328;2022-08-03T08:06:22;5.53;;;3.45;;
21281;SDS011;10800;53.096;18.328;2022-08-03T08:11:29;6.35;;;3.10;;
21281;SDS011;10800;53.096;18.328;2022-08-03T08:16:36;5.50;;;2.72;;
21281;SDS011;10800;53.096;18.328;2022-08-03T08:21:42;2.77;;;2.30;;
21281;SDS011;10800;53.096;18.328;2022-08-03T08:26:49;9.00;;;2.10;;
21281;SDS011;10800;53.096;18.328;2022-08-03T08:31:55;4.83;;;1.90;;
21281;SDS011;10800;53.096;18.328;2022-08-03T08:37:01;4.45;;;2.67;;
21281;SDS011;10800;53.096;18.328;2022-08-03T08:42:06;2.90;;;1.60;;
21281;SDS011;10800;53.096;18.328;2022-08-03T08:47:15;3.22;;;1.80;;
21281;SDS011;10800;53.096;18.328;2022-08-03T08:52:27;8.10;;;1.75;;
21281;SDS011;10800;53.096;18.328;2022-08-03T08:57:48;2.70;;;1.70;;
21281;SDS011;10800;53.096;18.328;2022-08-03T09:02:59;3.77;;;1.67;;
21281;SDS011;10800;53.096;18.328;2022-08-03T09:08:05;4.12;;;1.98;;
21281;SDS011;10800;53.096;18.328;2022-08-03T09:13:15;5.08;;;1.77;;
21281;SDS011;10800;53.096;18.328;2022-08-03T09:18:28;3.37;;;2.00;;
21281;SDS011;10800;53.096;18.328;2022-08-03T09:23:43;1.70;;;1.60;;
21281;SDS011;10800;53.096;18.328;2022-08-03T09:28:56;3.42;;;2.17;;
21281;SDS011;10800;53.096;18.328;2022-08-03T09:34:08;2.30;;;1.45;;
21281;SDS011;10800;53.096;18.328;2022-08-03T09:39:18;2.55;;;1.42;;
21281;SDS011;10800;53.096;18.328;2022-08-03T09:44:39;2.50;;;1.70;;
21281;SDS011;10800;53.096;18.328;2022-08-03T09:49:59;2.25;;;1.40;;
21281;SDS011;10800;53.096;18.328;2022-08-03T09:55:13;7.80;;;1.72;;
21281;SDS011;10800;53.096;18.328;2022-08-03T10:00:23;4.10;;;1.62;;
21281;SDS011;10800;53.096;18.328;2022-08-03T10:05:31;5.00;;;1.80;;
21281;SDS011;10800;53.096;18.328;2022-08-03T10:10:48;1.60;;;1.50;;
21281;SDS011;10800;53.096;18.328;2022-08-03T10:15:51;2.65;;;1.87;;
21281;SDS011;10800;53.096;18.328;2022-08-03T10:21:00;2.77;;;1.70;;
21281;SDS011;10800;53.096;18.328;2022-08-03T10:26:15;1.50;;;1.32;;
21281;SDS011;10800;53.096;18.328;2022-08-03T10:31:24;2.60;;;1.70;;
21281;SDS011;10800;53.096;18.328;2022-08-03T10:36:34;2.47;;;1.40;;
21281;SDS011;10800;53.096;18.328;2022-08-03T10:41:44;2.55;;;1.70;;
21281;SDS011;10800;53.096;18.328;2022-08-03T10:46:52;3.02;;;1.65;;
21281;SDS011;10800;53.096;18.328;2022-08-03T10:51:57;4.33;;;1.60;;
21281;SDS011;10800;53.096;18.328;2022-08-03T11:02:44;1.67;;;1.32;;
21281;SDS011;10800;53.096;18.328;2022-08-03T11:07:33;3.83;;;1.60;;
21281;SDS011;10800;53.096;18.328;2022-08-03T11:18:04;3.72;;;1.90;;
21281;SDS011;10800;53.096;18.328;2022-08-03T11:22:59;2.45;;;1.45;;
21281;SDS011;10800;53.096;18.328;2022-08-03T11:28:23;4.08;;;1.70;;
21281;SDS011;10800;53.096;18.328;2022-08-03T11:33:31;1.85;;;1.62;;
21281;SDS011;10800;53.096;18.328;2022-08-03T11:38:45;5.62;;;1.60;;
21281;SDS011;10800;53.096;18.328;2022-08-03T11:43:47;3.00;;;1.57;;
21281;SDS011;10800;53.096;18.328;2022-08-03T11:48:52;1.82;;;1.40;;
21281;SDS011;10800;53.096;18.328;2022-08-03T11:54:02;5.72;;;1.40;;
21281;SDS011;10800;53.096;18.328;2022-08-03T11:59:09;4.40;;;1.70;;
21281;SDS011;10800;53.096;18.328;2022-08-03T12:04:16;5.12;;;1.40;;
21281;SDS011;10800;53.096;18.328;2022-08-03T12:09:22;3.37;;;1.40;;
21281;SDS011;10800;53.096;18.328;2022-08-03T12:14:27;4.58;;;1.80;;
21281;SDS011;10800;53.096;18.328;2022-08-03T12:19:41;2.35;;;1.40;;
21281;SDS011;10800;53.096;18.328;2022-08-03T12:24:47;1.75;;;1.15;;
21281;SDS011;10800;53.096;18.328;2022-08-03T12:29:55;4.70;;;1.45;;
21281;SDS011;10800;53.096;18.328;2022-08-03T12:35:03;1.42;;;1.10;;
21281;SDS011;10800;53.096;18.328;2022-08-03T12:40:09;4.17;;;1.50;;
21281;SDS011;10800;53.096;18.328;2022-08-03T12:45:22;2.05;;;1.42;;
21281;SDS011;10800;53.096;18.328;2022-08-03T12:50:30;2.17;;;1.60;;
21281;SDS011;10800;53.096;18.328;2022-08-03T12:55:37;1.75;;;1.60;;
21281;SDS011;10800;53.096;18.328;2022-08-03T13:00:54;2.17;;;1.42;;
21281;SDS011;10800;53.096;18.328;2022-08-03T13:06:00;2.08;;;1.52;;
21281;SDS011;10800;53.096;18.328;2022-08-03T13:11:21;1.45;;;1.35;;
21281;SDS011;10800;53.096;18.328;2022-08-03T13:16:30;3.87;;;1.82;;
21281;SDS011;10800;53.096;18.328;2022-08-03T13:21:35;1.72;;;1.47;;
21281;SDS011;10800;53.096;18.328;2022-08-03T13:26:42;24.47;;;2.40;;
21281;SDS011;10800;53.096;18.328;2022-08-03T13:31:48;3.20;;;1.50;;
21281;SDS011;10800;53.096;18.328;2022-08-03T13:36:54;2.67;;;1.50;;
21281;SDS011;10800;53.096;18.328;2022-08-03T13:42:00;6.37;;;2.40;;
21281;SDS011;10800;53.096;18.328;2022-08-03T13:47:06;3.83;;;1.40;;
21281;SDS011;10800;53.096;18.328;2022-08-03T13:52:12;3.55;;;1.85;;
21281;SDS011;10800;53.096;18.328;2022-08-03T13:57:17;3.15;;;1.80;;
21281;SDS011;10800;53.096;18.328;2022-08-03T14:02:24;5.97;;;2.10;;
21281;SDS011;10800;53.096;18.328;2022-08-03T14:07:29;5.62;;;2.05;;
21281;SDS011;10800;53.096;18.328;2022-08-03T14:12:35;2.25;;;1.70;;
21281;SDS011;10800;53.096;18.328;2022-08-03T14:17:40;2.83;;;1.72;;
21281;SDS011;10800;53.096;18.328;2022-08-03T14:22:47;8.13;;;2.10;;
21281;SDS011;10800;53.096;18.328;2022-08-03T14:27:53;2.35;;;1.90;;
21281;SDS011;10800;53.096;18.328;2022-08-03T14:32:58;3.55;;;1.95;;
21281;SDS011;10800;53.096;18.328;2022-08-03T14:38:03;3.22;;;2.10;;
21281;SDS011;10800;53.096;18.328;2022-08-03T14:43:09;2.65;;;2.20;;
21281;SDS011;10800;53.096;18.328;2022-08-03T14:48:15;4.83;;;1.77;;
21281;SDS011;10800;53.096;18.328;2022-08-03T14:53:23;2.15;;;1.65;;
21281;SDS011;10800;53.096;18.328;2022-08-03T14:58:28;2.60;;;1.80;;
21281;SDS011;10800;53.096;18.328;2022-08-03T15:03:34;2.83;;;2.10;;
21281;SDS011;10800;53.096;18.328;2022-08-03T15:08:40;5.97;;;2.12;;
21281;SDS011;10800;53.096;18.328;2022-08-03T15:13:47;6.28;;;2.60;;
21281;SDS011;10800;53.096;18.328;2022-08-03T15:18:52;6.30;;;2.10;;
21281;SDS011;10800;53.096;18.328;2022-08-03T15:23:57;2.42;;;2.22;;
21281;SDS011;10800;53.096;18.328;2022-08-03T15:29:03;2.75;;;2.40;;
21281;SDS011;10800;53.096;18.328;2022-08-03T15:34:10;4.55;;;1.80;;
21281;SDS011;10800;53.096;18.328;2022-08-03T15:39:15;6.05;;;2.37;;
21281;SDS011;10800;53.096;18.328;2022-08-03T15:44:21;5.37;;;2.30;;
21281;SDS011;10800;53.096;18.328;2022-08-03T15:49:27;3.17;;;1.90;;
21281;SDS011;10800;53.096;18.328;2022-08-03T15:54:33;4.78;;;2.20;;
21281;SDS011;10800;53.096;18.328;2022-08-03T15:59:38;4.03;;;1.80;;
21281;SDS011;10800;53.096;18.328;2022-08-03T16:04:44;5.35;;;2.50;;
21281;SDS011;10800;53.096;18.328;2022-08-03T16:09:49;8.10;;;2.22;;
21281;SDS011;10800;53.096;18.328;2022-08-03T16:14:54;3.25;;;2.35;;
21281;SDS011;10800;53.096;18.328;2022-08-03T16:20:02;3.90;;;2.10;;
21281;SDS011;10800;53.096;18.328;2022-08-03T16:25:11;20.85;;;3.70;;
21281;SDS011;10800;53.096;18.328;2022-08-03T16:32:47;10.90;;;3.17;;
21281;SDS011;10800;53.096;18.328;2022-08-03T16:37:56;4.65;;;2.90;;
21281;SDS011;10800;53.096;18.328;2022-08-03T16:43:07;7.15;;;2.83;;
21281;SDS011;10800;53.096;18.328;2022-08-03T16:48:21;7.22;;;3.02;;
21281;SDS011;10800;53.096;18.328;2022-08-03T16:53:27;6.37;;;2.33;;
21281;SDS011;10800;53.096;18.328;2022-08-03T16:58:34;10.08;;;2.90;;
21281;SDS011;10800;53.096;18.328;2022-08-03T17:03:41;10.45;;;3.87;;
21281;SDS011;10800;53.096;18.328;2022-08-03T17:08:49;4.62;;;3.60;;
21281;SDS011;10800;53.096;18.328;2022-08-03T17:13:56;4.17;;;2.25;;
21281;SDS011;10800;53.096;18.328;2022-08-03T17:19:03;6.30;;;2.92;;
21281;SDS011;10800;53.096;18.328;2022-08-03T17:24:13;3.95;;;2.20;;
21281;SDS011;10800;53.096;18.328;2022-08-03T17:29:22;3.25;;;2.58;;
21281;SDS011;10800;53.096;18.328;2022-08-03T17:34:32;8.30;;;2.70;;
21281;SDS011;10800;53.096;18.328;2022-08-03T17:39:39;5.62;;;3.05;;
21281;SDS011;10800;53.096;18.328;2022-08-03T17:44:47;6.12;;;2.98;;
21281;SDS011;10800;53.096;18.328;2022-08-03T17:49:55;7.08;;;4.33;;
21281;SDS011;10800;53.096;18.328;2022-08-03T17:55:08;9.05;;;3.72;;
21281;SDS011;10800;53.096;18.328;2022-08-03T18:00:26;7.25;;;2.65;;
21281;SDS011;10800;53.096;18.328;2022-08-03T18:05:53;4.33;;;2.40;;
21281;SDS011;10800;53.096;18.328;2022-08-03T18:16:14;7.17;;;3.42;;
21281;SDS011;10800;53.096;18.328;2022-08-03T18:21:23;8.45;;;3.25;;
21281;SDS011;10800;53.096;18.328;2022-08-03T18:26:32;6.28;;;3.72;;
21281;SDS011;10800;53.096;18.328;2022-08-03T18:31:40;9.20;;;3.47;;
21281;SDS011;10800;53.096;18.328;2022-08-03T18:36:48;5.08;;;3.92;;
21281;SDS011;10800;53.096;18.328;2022-08-03T18:41:57;6.67;;;3.58;;
21281;SDS011;10800;53.096;18.328;2022-08-03T18:47:30;7.78;;;4.37;;
21281;SDS011;10800;53.096;18.328;2022-08-03T18:52:48;6.97;;;3.72;;
21281;SDS011;10800;53.096;18.328;2022-08-03T18:58:13;4.22;;;3.20;;
21281;SDS011;10800;53.096;18.328;2022-08-03T19:03:21;4.22;;;3.27;;
21281;SDS011;10800;53.096;18.328;2022-08-03T19:13:52;5.17;;;3.37;;
21281;SDS011;10800;53.096;18.328;2022-08-03T19:19:02;7.10;;;4.03;;
21281;SDS011;10800;53.096;18.328;2022-08-03T19:24:11;9.23;;;3.47;;
21281;SDS011;10800;53.096;18.328;2022-08-03T19:29:18;9.65;;;3.80;;
21281;SDS011;10800;53.096;18.328;2022-08-03T19:34:29;4.78;;;3.55;;
21281;SDS011;10800;53.096;18.328;2022-08-03T19:45:04;6.67;;;3.55;;
21281;SDS011;10800;53.096;18.328;2022-08-03T19:50:12;6.10;;;3.30;;
21281;SDS011;10800;53.096;18.328;2022-08-03T19:55:19;14.15;;;3.12;;
21281;SDS011;10800;53.096;18.328;2022-08-03T20:00:25;7.53;;;3.27;;
21281;SDS011;10800;53.096;18.328;2022-08-03T20:05:34;6.83;;;3.85;;
21281;SDS011;10800;53.096;18.328;2022-08-03T20:10:42;8.10;;;3.50;;
21281;SDS011;10800;53.096;18.328;2022-08-03T20:15:49;5.85;;;3.95;;
21281;SDS011;10800;53.096;18.328;2022-08-03T20:20:56;7.17;;;4.08;;
21281;SDS011;10800;53.096;18.328;2022-08-03T20:26:05;16.17;;;9.38;;
21281;SDS011;10800;53.096;18.328;2022-08-03T20:31:11;16.45;;;10.05;;
21281;SDS011;10800;53.096;18.328;2022-08-03T20:36:17;11.05;;;6.60;;
21281;SDS011;10800;53.096;18.328;2022-08-03T20:41:23;11.45;;;5.47;;
21281;SDS011;10800;53.096;18.328;2022-08-03T20:46:29;10.78;;;5.20;;
21281;SDS011;10800;53.096;18.328;2022-08-03T20:51:37;10.15;;;5.70;;
21281;SDS011;10800;53.096;18.328;2022-08-03T20:56:45;9.75;;;6.00;;
21281;SDS011;10800;53.096;18.328;2022-08-03T21:01:52;10.20;;;4.65;;
21281;SDS011;10800;53.096;18.328;2022-08-03T21:07:05;5.90;;;4.00;;
21281;SDS011;10800;53.096;18.328;2022-08-03T21:12:14;9.38;;;4.83;;
21281;SDS011;10800;53.096;18.328;2022-08-03T21:17:23;9.25;;;4.40;;
21281;SDS011;10800;53.096;18.328;2022-08-03T21:22:36;8.63;;;4.85;;
21281;SDS011;10800;53.096;18.328;2022-08-03T21:27:42;10.63;;;5.47;;
21281;SDS011;10800;53.096;18.328;2022-08-03T21:32:50;17.15;;;5.65;;
21281;SDS011;10800;53.096;18.328;2022-08-03T21:37:58;12.80;;;5.97;;
21281;SDS011;10800;53.096;18.328;2022-08-03T21:43:22;17.65;;;4.75;;
21281;SDS011;10800;53.096;18.328;2022-08-03T21:48:29;11.70;;;5.00;;
21281;SDS011;10800;53.096;18.328;2022-08-03T21:53:36;16.93;;;4.97;;
21281;SDS011;10800;53.096;18.328;2022-08-03T21:58:49;10.00;;;5.00;;
21281;SDS011;10800;53.096;18.328;2022-08-03T22:03:56;11.22;;;5.67;;
21281;SDS011;10800;53.096;18.328;2022-08-03T22:09:04;14.18;;;5.90;;
21281;SDS011;10800;53.096;18.328;2022-08-03T22:14:10;11.68;;;5.22;;
21281;SDS011;10800;53.096;18.328;2022-08-03T22:19:16;12.90;;;5.10;;
21281;SDS011;10800;53.096;18.328;2022-08-03T22:24:21;13.70;;;5.03;;
21281;SDS011;10800;53.096;18.328;2022-08-03T22:29:31;16.67;;;5.78;;
21281;SDS011;10800;53.096;18.328;2022-08-03T22:34:40;14.77;;;5.37;;
21281;SDS011;10800;53.096;18.328;2022-08-03T22:39:49;8.67;;;5.90;;
21281;SDS011;10800;53.096;18.328;2022-08-03T22:44:54;12.47;;;7.13;;
21281;SDS011;10800;53.096;18.328;2022-08-03T22:50:01;13.00;;;6.80;;
21281;SDS011;10800;53.096;18.328;2022-08-03T22:55:11;18.10;;;7.70;;
21281;SDS011;10800;53.096;18.328;2022-08-03T23:00:20;14.40;;;7.10;;
21281;SDS011;10800;53.096;18.328;2022-08-03T23:05:26;14.73;;;6.13;;
21281;SDS011;10800;53.096;18.328;2022-08-03T23:10:34;12.80;;;6.97;;
21281;SDS011;10800;53.096;18.328;2022-08-03T23:15:48;12.47;;;6.50;;
21281;SDS011;10800;53.096;18.328;2022-08-03T23:21:00;11.43;;;6.90;;
21281;SDS011;10800;53.096;18.328;2022-08-03T23:26:16;14.20;;;6.70;;
21281;SDS011;10800;53.096;18.328;2022-08-03T23:31:18;12.77;;;6.37;;
21281;SDS011;10800;53.096;18.328;2022-08-03T23:36:25;13.50;;;6.47;;
21281;SDS011;10800;53.096;18.328;2022-08-03T23:41:32;10.60;;;6.30;;
21281;SDS011;10800;53.096;18.328;2022-08-03T23:46:39;10.67;;;6.77;;
21281;SDS011;10800;53.096;18.328;2022-08-03T23:52:31;18.20;;;6.90;;
21281;SDS011;10800;53.096;18.328;2022-08-03T23:57:25;17.00;;;7.27;;
